sensor_id;sensor_type;location;lat;lon;timestamp;temperature;humidity
12115;DHT22;6121;49.810;6.418;2023-04-06T00:02:27;2.00;99.90
12115;DHT22;6121;49.810;6.418;2023-04-06T00:04:52;2.20;99.90
12115;DHT22;6121;49.810;6.418;2023-04-06T00:07:18;2.10;99.90
12115;DHT22;6121;49.810;6.418;2023-04-06T00:09:44;2.10;99.90
12115;DHT22;6121;49.810;6.418;2023-04-06T00:12:10;1.90;99.90
12115;DHT22;6121;49.810;6.418;2023-04-06T00:14:36;2.10;99.90
12115;DHT22;6121;49.810;6.418;2023-04-06T00:17:01;1.90;99.90
12115;DHT22;6121;49.810;6.418;2023-04-06T00:19:27;1.90;99.90
12115;DHT22;6121;49.810;6.418;2023-04-06T00:21:53;2.00;99.90
12115;DHT22;6121;49.810;6.418;2023-04-06T00:24:19;1.80;99.90
12115;DHT22;6121;49.810;6.418;2023-04-06T00:26:45;1.90;99.90
12115;DHT22;6121;49.810;6.418;2023-04-06T00:29:11;1.70;99.90
12115;DHT22;6121;49.810;6.418;2023-04-06T00:31:38;1.70;99.90
12115;DHT22;6121;49.810;6.418;2023-04-06T00:34:05;2.10;99.90
12115;DHT22;6121;49.810;6.418;2023-04-06T00:36:31;2.00;99.90
12115;DHT22;6121;49.810;6.418;2023-04-06T00:38:57;1.90;99.90
12115;DHT22;6121;49.810;6.418;2023-04-06T00:41:23;2.10;99.90
12115;DHT22;6121;49.810;6.418;2023-04-06T00:43:49;1.70;99.90
12115;DHT22;6121;49.810;6.418;2023-04-06T00:46:15;1.70;99.90
12115;DHT22;6121;49.810;6.418;2023-04-06T00:48:41;1.70;99.90
12115;DHT22;6121;49.810;6.418;2023-04-06T00:51:06;1.60;99.90
12115;DHT22;6121;49.810;6.418;2023-04-06T00:53:32;1.40;99.90
12115;DHT22;6121;49.810;6.418;2023-04-06T00:56:00;1.70;99.90
12115;DHT22;6121;49.810;6.418;2023-04-06T00:58:26;1.80;99.90
12115;DHT22;6121;49.810;6.418;2023-04-06T01:01:00;1.80;99.90
12115;DHT22;6121;49.810;6.418;2023-04-06T01:03:26;1.70;99.90
12115;DHT22;6121;49.810;6.418;2023-04-06T01:05:52;1.50;99.90
12115;DHT22;6121;49.810;6.418;2023-04-06T01:08:25;1.60;99.90
12115;DHT22;6121;49.810;6.418;2023-04-06T01:10:59;1.70;99.90
12115;DHT22;6121;49.810;6.418;2023-04-06T01:13:28;1.60;99.90
12115;DHT22;6121;49.810;6.418;2023-04-06T01:16:00;1.50;99.90
12115;DHT22;6121;49.810;6.418;2023-04-06T01:18:43;1.50;99.90
12115;DHT22;6121;49.810;6.418;2023-04-06T01:21:14;1.50;99.90
12115;DHT22;6121;49.810;6.418;2023-04-06T01:24:08;1.20;99.90
12115;DHT22;6121;49.810;6.418;2023-04-06T01:26:49;1.00;99.90
12115;DHT22;6121;49.810;6.418;2023-04-06T01:29:15;1.00;99.90
12115;DHT22;6121;49.810;6.418;2023-04-06T01:31:41;0.90;99.90
12115;DHT22;6121;49.810;6.418;2023-04-06T01:34:07;1.10;99.90
12115;DHT22;6121;49.810;6.418;2023-04-06T01:36:33;1.20;99.90
12115;DHT22;6121;49.810;6.418;2023-04-06T01:39:12;1.00;99.90
12115;DHT22;6121;49.810;6.418;2023-04-06T01:41:39;1.20;99.90
12115;DHT22;6121;49.810;6.418;2023-04-06T01:44:05;1.40;99.90
12115;DHT22;6121;49.810;6.418;2023-04-06T01:46:32;1.50;99.90
12115;DHT22;6121;49.810;6.418;2023-04-06T01:48:59;1.40;99.90
12115;DHT22;6121;49.810;6.418;2023-04-06T01:51:34;1.30;99.90
12115;DHT22;6121;49.810;6.418;2023-04-06T01:54:03;1.30;99.90
12115;DHT22;6121;49.810;6.418;2023-04-06T01:56:54;1.10;99.90
12115;DHT22;6121;49.810;6.418;2023-04-06T01:59:28;1.00;99.90
12115;DHT22;6121;49.810;6.418;2023-04-06T02:01:54;0.90;99.90
12115;DHT22;6121;49.810;6.418;2023-04-06T02:04:21;0.90;99.90
12115;DHT22;6121;49.810;6.418;2023-04-06T02:06:52;0.70;99.90
12115;DHT22;6121;49.810;6.418;2023-04-06T02:09:22;0.90;99.90
12115;DHT22;6121;49.810;6.418;2023-04-06T02:11:48;0.80;99.90
12115;DHT22;6121;49.810;6.418;2023-04-06T02:14:13;0.80;99.90
12115;DHT22;6121;49.810;6.418;2023-04-06T02:16:45;0.90;99.90
12115;DHT22;6121;49.810;6.418;2023-04-06T02:19:11;0.70;99.90
12115;DHT22;6121;49.810;6.418;2023-04-06T02:21:38;0.90;99.90
12115;DHT22;6121;49.810;6.418;2023-04-06T02:24:04;0.80;99.90
12115;DHT22;6121;49.810;6.418;2023-04-06T02:26:30;0.70;99.90
12115;DHT22;6121;49.810;6.418;2023-04-06T02:28:56;0.70;99.90
12115;DHT22;6121;49.810;6.418;2023-04-06T02:31:22;0.70;99.90
12115;DHT22;6121;49.810;6.418;2023-04-06T02:33:48;0.70;99.90
12115;DHT22;6121;49.810;6.418;2023-04-06T02:36:16;0.60;99.90
12115;DHT22;6121;49.810;6.418;2023-04-06T02:38:41;0.50;99.90
12115;DHT22;6121;49.810;6.418;2023-04-06T02:41:07;0.70;99.90
12115;DHT22;6121;49.810;6.418;2023-04-06T02:43:33;0.70;99.90
12115;DHT22;6121;49.810;6.418;2023-04-06T02:46:08;0.70;99.90
12115;DHT22;6121;49.810;6.418;2023-04-06T02:48:37;0.70;99.90
12115;DHT22;6121;49.810;6.418;2023-04-06T02:51:04;0.60;99.90
12115;DHT22;6121;49.810;6.418;2023-04-06T02:53:29;0.60;99.90
12115;DHT22;6121;49.810;6.418;2023-04-06T02:55:56;0.50;99.90
12115;DHT22;6121;49.810;6.418;2023-04-06T02:58:25;0.50;99.90
12115;DHT22;6121;49.810;6.418;2023-04-06T03:00:54;0.40;99.90
12115;DHT22;6121;49.810;6.418;2023-04-06T03:03:20;0.40;99.90
12115;DHT22;6121;49.810;6.418;2023-04-06T03:05:47;0.40;99.90
12115;DHT22;6121;49.810;6.418;2023-04-06T03:08:14;0.40;99.90
12115;DHT22;6121;49.810;6.418;2023-04-06T03:10:43;0.40;99.90
12115;DHT22;6121;49.810;6.418;2023-04-06T03:13:09;0.40;99.90
12115;DHT22;6121;49.810;6.418;2023-04-06T03:15:47;0.40;99.90
12115;DHT22;6121;49.810;6.418;2023-04-06T03:18:22;0.40;99.90
12115;DHT22;6121;49.810;6.418;2023-04-06T03:20:49;0.30;99.90
12115;DHT22;6121;49.810;6.418;2023-04-06T03:23:16;0.20;99.90
12115;DHT22;6121;49.810;6.418;2023-04-06T03:25:44;0.20;99.90
12115;DHT22;6121;49.810;6.418;2023-04-06T03:28:14;0.20;99.90
12115;DHT22;6121;49.810;6.418;2023-04-06T03:30:49;0.30;99.90
12115;DHT22;6121;49.810;6.418;2023-04-06T03:33:18;0.20;99.90
12115;DHT22;6121;49.810;6.418;2023-04-06T03:35:52;0.30;99.90
12115;DHT22;6121;49.810;6.418;2023-04-06T03:38:18;0.20;99.90
12115;DHT22;6121;49.810;6.418;2023-04-06T03:40:43;0.10;99.90
12115;DHT22;6121;49.810;6.418;2023-04-06T03:43:09;0.10;99.90
12115;DHT22;6121;49.810;6.418;2023-04-06T03:45:37;0.20;99.90
12115;DHT22;6121;49.810;6.418;2023-04-06T03:48:04;0.00;99.90
12115;DHT22;6121;49.810;6.418;2023-04-06T03:50:33;0.10;99.90
12115;DHT22;6121;49.810;6.418;2023-04-06T03:52:59;0.00;99.90
12115;DHT22;6121;49.810;6.418;2023-04-06T03:55:27;0.00;99.90
12115;DHT22;6121;49.810;6.418;2023-04-06T03:57:53;0.00;99.90
12115;DHT22;6121;49.810;6.418;2023-04-06T04:00:19;0.00;99.90
12115;DHT22;6121;49.810;6.418;2023-04-06T04:02:46;0.00;99.90
12115;DHT22;6121;49.810;6.418;2023-04-06T04:05:12;0.10;99.90
12115;DHT22;6121;49.810;6.418;2023-04-06T04:07:37;0.00;99.90
12115;DHT22;6121;49.810;6.418;2023-04-06T04:10:05;-0.10;99.90
12115;DHT22;6121;49.810;6.418;2023-04-06T04:12:31;0.00;99.90
12115;DHT22;6121;49.810;6.418;2023-04-06T04:14:58;0.00;99.90
12115;DHT22;6121;49.810;6.418;2023-04-06T04:17:24;0.10;99.90
12115;DHT22;6121;49.810;6.418;2023-04-06T04:19:50;0.20;99.90
12115;DHT22;6121;49.810;6.418;2023-04-06T04:22:16;0.00;99.90
12115;DHT22;6121;49.810;6.418;2023-04-06T04:24:43;0.00;99.90
12115;DHT22;6121;49.810;6.418;2023-04-06T04:27:09;0.00;99.90
12115;DHT22;6121;49.810;6.418;2023-04-06T04:29:35;0.00;99.90
12115;DHT22;6121;49.810;6.418;2023-04-06T04:32:05;0.10;99.90
12115;DHT22;6121;49.810;6.418;2023-04-06T04:34:31;0.10;99.90
12115;DHT22;6121;49.810;6.418;2023-04-06T04:36:58;0.10;99.90
12115;DHT22;6121;49.810;6.418;2023-04-06T04:39:36;0.10;99.90
12115;DHT22;6121;49.810;6.418;2023-04-06T04:42:05;0.10;99.90
12115;DHT22;6121;49.810;6.418;2023-04-06T04:44:34;0.40;99.90
12115;DHT22;6121;49.810;6.418;2023-04-06T04:47:00;0.20;99.90
12115;DHT22;6121;49.810;6.418;2023-04-06T04:49:36;0.20;99.90
12115;DHT22;6121;49.810;6.418;2023-04-06T04:52:03;0.20;99.90
12115;DHT22;6121;49.810;6.418;2023-04-06T04:54:37;0.30;99.90
12115;DHT22;6121;49.810;6.418;2023-04-06T04:57:03;0.30;99.90
12115;DHT22;6121;49.810;6.418;2023-04-06T04:59:39;0.20;99.90
12115;DHT22;6121;49.810;6.418;2023-04-06T05:02:14;0.30;99.90
12115;DHT22;6121;49.810;6.418;2023-04-06T05:04:50;0.30;99.90
12115;DHT22;6121;49.810;6.418;2023-04-06T05:07:20;0.30;99.90
12115;DHT22;6121;49.810;6.418;2023-04-06T05:09:46;0.30;99.90
12115;DHT22;6121;49.810;6.418;2023-04-06T05:12:13;0.30;99.90
12115;DHT22;6121;49.810;6.418;2023-04-06T05:14:51;0.30;99.90
12115;DHT22;6121;49.810;6.418;2023-04-06T05:17:19;0.30;99.90
12115;DHT22;6121;49.810;6.418;2023-04-06T05:19:45;0.40;99.90
12115;DHT22;6121;49.810;6.418;2023-04-06T05:22:13;0.40;99.90
12115;DHT22;6121;49.810;6.418;2023-04-06T05:24:44;0.40;99.90
12115;DHT22;6121;49.810;6.418;2023-04-06T05:27:10;0.50;99.90
12115;DHT22;6121;49.810;6.418;2023-04-06T05:29:37;0.60;99.90
12115;DHT22;6121;49.810;6.418;2023-04-06T05:32:03;0.60;99.90
12115;DHT22;6121;49.810;6.418;2023-04-06T05:34:29;0.70;99.90
12115;DHT22;6121;49.810;6.418;2023-04-06T05:36:56;0.70;99.90
12115;DHT22;6121;49.810;6.418;2023-04-06T05:39:24;0.70;99.90
12115;DHT22;6121;49.810;6.418;2023-04-06T05:41:53;0.80;99.90
12115;DHT22;6121;49.810;6.418;2023-04-06T05:44:31;0.80;99.90
12115;DHT22;6121;49.810;6.418;2023-04-06T05:47:08;0.90;99.90
12115;DHT22;6121;49.810;6.418;2023-04-06T05:49:35;0.80;99.90
12115;DHT22;6121;49.810;6.418;2023-04-06T05:52:02;0.80;99.90
12115;DHT22;6121;49.810;6.418;2023-04-06T05:54:29;0.70;99.90
12115;DHT22;6121;49.810;6.418;2023-04-06T05:57:01;0.70;99.90
12115;DHT22;6121;49.810;6.418;2023-04-06T05:59:27;0.90;99.90
12115;DHT22;6121;49.810;6.418;2023-04-06T06:01:53;0.90;99.90
12115;DHT22;6121;49.810;6.418;2023-04-06T06:04:22;0.80;99.90
12115;DHT22;6121;49.810;6.418;2023-04-06T06:06:51;0.80;99.90
12115;DHT22;6121;49.810;6.418;2023-04-06T06:09:21;0.80;99.90
12115;DHT22;6121;49.810;6.418;2023-04-06T06:12:02;0.80;99.90
12115;DHT22;6121;49.810;6.418;2023-04-06T06:14:29;0.90;99.90
12115;DHT22;6121;49.810;6.418;2023-04-06T06:16:55;0.90;99.90
12115;DHT22;6121;49.810;6.418;2023-04-06T06:19:21;1.00;99.90
12115;DHT22;6121;49.810;6.418;2023-04-06T06:21:51;1.10;99.90
12115;DHT22;6121;49.810;6.418;2023-04-06T06:24:17;1.10;99.90
12115;DHT22;6121;49.810;6.418;2023-04-06T06:26:43;1.20;99.90
12115;DHT22;6121;49.810;6.418;2023-04-06T06:29:12;1.40;99.90
12115;DHT22;6121;49.810;6.418;2023-04-06T06:31:38;1.60;99.90
12115;DHT22;6121;49.810;6.418;2023-04-06T06:34:04;1.60;99.90
12115;DHT22;6121;49.810;6.418;2023-04-06T06:36:32;1.60;99.90
12115;DHT22;6121;49.810;6.418;2023-04-06T06:38:58;1.80;99.90
12115;DHT22;6121;49.810;6.418;2023-04-06T06:41:26;1.80;99.90
12115;DHT22;6121;49.810;6.418;2023-04-06T06:43:52;1.80;99.90
12115;DHT22;6121;49.810;6.418;2023-04-06T06:46:18;2.10;99.90
12115;DHT22;6121;49.810;6.418;2023-04-06T06:48:44;2.30;99.90
12115;DHT22;6121;49.810;6.418;2023-04-06T06:51:10;2.40;99.90
12115;DHT22;6121;49.810;6.418;2023-04-06T06:53:39;2.70;99.90
12115;DHT22;6121;49.810;6.418;2023-04-06T06:56:06;2.90;99.90
12115;DHT22;6121;49.810;6.418;2023-04-06T06:58:32;2.70;99.90
12115;DHT22;6121;49.810;6.418;2023-04-06T07:00:59;3.00;99.90
12115;DHT22;6121;49.810;6.418;2023-04-06T07:03:26;3.20;99.90
12115;DHT22;6121;49.810;6.418;2023-04-06T07:05:53;3.20;99.90
12115;DHT22;6121;49.810;6.418;2023-04-06T07:08:21;3.30;99.90
12115;DHT22;6121;49.810;6.418;2023-04-06T07:10:47;3.30;99.90
12115;DHT22;6121;49.810;6.418;2023-04-06T07:13:14;3.30;99.90
12115;DHT22;6121;49.810;6.418;2023-04-06T07:15:46;3.30;99.90
12115;DHT22;6121;49.810;6.418;2023-04-06T07:18:12;3.30;99.90
12115;DHT22;6121;49.810;6.418;2023-04-06T07:20:38;3.40;99.90
12115;DHT22;6121;49.810;6.418;2023-04-06T07:23:04;3.40;99.90
12115;DHT22;6121;49.810;6.418;2023-04-06T07:25:30;3.40;99.90
12115;DHT22;6121;49.810;6.418;2023-04-06T07:27:56;3.40;99.90
12115;DHT22;6121;49.810;6.418;2023-04-06T07:30:24;3.50;99.90
12115;DHT22;6121;49.810;6.418;2023-04-06T07:32:54;3.50;99.90
12115;DHT22;6121;49.810;6.418;2023-04-06T07:35:26;3.60;99.90
12115;DHT22;6121;49.810;6.418;2023-04-06T07:37:56;3.50;99.90
12115;DHT22;6121;49.810;6.418;2023-04-06T07:40:23;3.80;99.90
12115;DHT22;6121;49.810;6.418;2023-04-06T07:42:49;4.00;99.90
12115;DHT22;6121;49.810;6.418;2023-04-06T07:45:15;4.10;99.90
12115;DHT22;6121;49.810;6.418;2023-04-06T07:47:42;4.10;99.90
12115;DHT22;6121;49.810;6.418;2023-04-06T07:50:09;4.30;99.90
12115;DHT22;6121;49.810;6.418;2023-04-06T07:52:36;4.30;99.90
12115;DHT22;6121;49.810;6.418;2023-04-06T07:55:02;4.40;99.90
12115;DHT22;6121;49.810;6.418;2023-04-06T07:57:28;4.50;99.90
12115;DHT22;6121;49.810;6.418;2023-04-06T07:59:54;4.50;99.90
12115;DHT22;6121;49.810;6.418;2023-04-06T08:02:20;4.60;99.90
12115;DHT22;6121;49.810;6.418;2023-04-06T08:04:46;5.00;99.90
12115;DHT22;6121;49.810;6.418;2023-04-06T08:07:11;5.40;99.90
12115;DHT22;6121;49.810;6.418;2023-04-06T08:09:39;5.60;99.90
12115;DHT22;6121;49.810;6.418;2023-04-06T08:12:05;5.70;99.90
12115;DHT22;6121;49.810;6.418;2023-04-06T08:14:31;5.80;99.90
12115;DHT22;6121;49.810;6.418;2023-04-06T08:16:57;6.10;99.90
12115;DHT22;6121;49.810;6.418;2023-04-06T08:19:23;6.20;99.90
12115;DHT22;6121;49.810;6.418;2023-04-06T08:21:48;6.40;99.90
12115;DHT22;6121;49.810;6.418;2023-04-06T08:24:14;6.70;99.90
12115;DHT22;6121;49.810;6.418;2023-04-06T08:26:40;6.80;99.90
12115;DHT22;6121;49.810;6.418;2023-04-06T08:29:06;7.00;99.90
12115;DHT22;6121;49.810;6.418;2023-04-06T08:31:37;7.10;99.90
12115;DHT22;6121;49.810;6.418;2023-04-06T08:34:04;7.40;99.90
12115;DHT22;6121;49.810;6.418;2023-04-06T08:36:31;7.20;99.90
12115;DHT22;6121;49.810;6.418;2023-04-06T08:38:57;7.50;99.90
12115;DHT22;6121;49.810;6.418;2023-04-06T08:41:23;7.70;99.90
12115;DHT22;6121;49.810;6.418;2023-04-06T08:43:58;7.70;99.90
12115;DHT22;6121;49.810;6.418;2023-04-06T08:46:26;7.70;99.90
12115;DHT22;6121;49.810;6.418;2023-04-06T08:48:59;8.00;99.70
12115;DHT22;6121;49.810;6.418;2023-04-06T08:51:27;8.10;99.50
12115;DHT22;6121;49.810;6.418;2023-04-06T08:53:54;8.30;99.20
12115;DHT22;6121;49.810;6.418;2023-04-06T08:56:25;8.70;98.90
12115;DHT22;6121;49.810;6.418;2023-04-06T08:58:53;8.70;98.60
12115;DHT22;6121;49.810;6.418;2023-04-06T09:01:25;9.00;98.50
12115;DHT22;6121;49.810;6.418;2023-04-06T09:03:53;8.80;98.50
12115;DHT22;6121;49.810;6.418;2023-04-06T09:06:21;8.90;98.10
12115;DHT22;6121;49.810;6.418;2023-04-06T09:08:47;9.20;98.10
12115;DHT22;6121;49.810;6.418;2023-04-06T09:11:14;9.10;97.60
12115;DHT22;6121;49.810;6.418;2023-04-06T09:13:56;9.40;97.40
12115;DHT22;6121;49.810;6.418;2023-04-06T09:16:22;9.50;97.40
12115;DHT22;6121;49.810;6.418;2023-04-06T09:18:49;9.80;97.00
12115;DHT22;6121;49.810;6.418;2023-04-06T09:21:19;9.90;96.60
12115;DHT22;6121;49.810;6.418;2023-04-06T09:23:45;10.00;96.10
12115;DHT22;6121;49.810;6.418;2023-04-06T09:26:16;10.10;95.70
12115;DHT22;6121;49.810;6.418;2023-04-06T09:28:53;10.10;95.60
12115;DHT22;6121;49.810;6.418;2023-04-06T09:31:27;10.30;95.50
12115;DHT22;6121;49.810;6.418;2023-04-06T09:33:54;10.50;95.30
12115;DHT22;6121;49.810;6.418;2023-04-06T09:36:30;10.80;95.00
12115;DHT22;6121;49.810;6.418;2023-04-06T09:38:59;10.90;94.90
12115;DHT22;6121;49.810;6.418;2023-04-06T09:44:01;11.10;94.30
12115;DHT22;6121;49.810;6.418;2023-04-06T09:46:27;11.00;94.30
12115;DHT22;6121;49.810;6.418;2023-04-06T09:48:57;11.10;94.40
12115;DHT22;6121;49.810;6.418;2023-04-06T09:51:24;11.20;94.40
12115;DHT22;6121;49.810;6.418;2023-04-06T09:53:53;11.30;94.20
12115;DHT22;6121;49.810;6.418;2023-04-06T09:56:24;11.40;94.00
12115;DHT22;6121;49.810;6.418;2023-04-06T09:58:56;11.50;94.20
12115;DHT22;6121;49.810;6.418;2023-04-06T10:01:26;11.60;92.40
12115;DHT22;6121;49.810;6.418;2023-04-06T10:04:09;11.70;92.00
12115;DHT22;6121;49.810;6.418;2023-04-06T10:06:40;11.80;92.20
12115;DHT22;6121;49.810;6.418;2023-04-06T10:09:07;11.80;91.70
12115;DHT22;6121;49.810;6.418;2023-04-06T10:11:34;11.70;91.10
12115;DHT22;6121;49.810;6.418;2023-04-06T10:14:00;11.60;90.90
12115;DHT22;6121;49.810;6.418;2023-04-06T10:16:26;11.50;90.40
12115;DHT22;6121;49.810;6.418;2023-04-06T10:19:01;11.60;91.20
12115;DHT22;6121;49.810;6.418;2023-04-06T10:21:31;11.60;90.50
12115;DHT22;6121;49.810;6.418;2023-04-06T10:24:02;11.80;90.30
12115;DHT22;6121;49.810;6.418;2023-04-06T10:26:28;11.90;89.30
12115;DHT22;6121;49.810;6.418;2023-04-06T10:28:54;11.90;88.50
12115;DHT22;6121;49.810;6.418;2023-04-06T10:31:28;12.10;88.50
12115;DHT22;6121;49.810;6.418;2023-04-06T10:33:59;12.10;88.70
12115;DHT22;6121;49.810;6.418;2023-04-06T10:36:26;12.40;88.10
12115;DHT22;6121;49.810;6.418;2023-04-06T10:38:56;12.60;87.40
12115;DHT22;6121;49.810;6.418;2023-04-06T10:41:23;12.60;86.70
12115;DHT22;6121;49.810;6.418;2023-04-06T10:43:57;12.60;85.20
12115;DHT22;6121;49.810;6.418;2023-04-06T10:46:29;12.50;85.10
12115;DHT22;6121;49.810;6.418;2023-04-06T10:48:55;12.60;86.50
12115;DHT22;6121;49.810;6.418;2023-04-06T10:51:25;12.70;84.10
12115;DHT22;6121;49.810;6.418;2023-04-06T10:53:54;12.70;84.90
12115;DHT22;6121;49.810;6.418;2023-04-06T10:56:23;12.50;84.90
12115;DHT22;6121;49.810;6.418;2023-04-06T10:58:54;12.50;85.20
12115;DHT22;6121;49.810;6.418;2023-04-06T11:01:24;12.70;84.30
12115;DHT22;6121;49.810;6.418;2023-04-06T11:03:57;12.80;84.60
12115;DHT22;6121;49.810;6.418;2023-04-06T11:06:27;13.00;84.70
12115;DHT22;6121;49.810;6.418;2023-04-06T11:08:55;12.80;84.90
12115;DHT22;6121;49.810;6.418;2023-04-06T11:11:24;12.70;85.60
12115;DHT22;6121;49.810;6.418;2023-04-06T11:14:00;12.60;85.90
12115;DHT22;6121;49.810;6.418;2023-04-06T11:16:31;12.70;85.40
12115;DHT22;6121;49.810;6.418;2023-04-06T11:19:02;12.70;84.20
12115;DHT22;6121;49.810;6.418;2023-04-06T11:24:06;12.50;86.40
12115;DHT22;6121;49.810;6.418;2023-04-06T11:26:37;12.70;87.10
12115;DHT22;6121;49.810;6.418;2023-04-06T11:29:03;12.80;86.00
12115;DHT22;6121;49.810;6.418;2023-04-06T11:31:29;12.70;86.80
12115;DHT22;6121;49.810;6.418;2023-04-06T11:33:56;12.60;87.70
12115;DHT22;6121;49.810;6.418;2023-04-06T11:36:23;12.60;86.60
12115;DHT22;6121;49.810;6.418;2023-04-06T11:38:49;12.50;87.10
12115;DHT22;6121;49.810;6.418;2023-04-06T11:41:16;12.50;87.40
12115;DHT22;6121;49.810;6.418;2023-04-06T11:43:47;12.70;87.40
12115;DHT22;6121;49.810;6.418;2023-04-06T11:46:17;12.50;87.60
12115;DHT22;6121;49.810;6.418;2023-04-06T11:48:46;12.70;88.50
12115;DHT22;6121;49.810;6.418;2023-04-06T11:51:21;12.80;89.20
12115;DHT22;6121;49.810;6.418;2023-04-06T11:53:48;12.50;88.30
12115;DHT22;6121;49.810;6.418;2023-04-06T11:56:45;12.30;89.60
12115;DHT22;6121;49.810;6.418;2023-04-06T11:59:11;12.30;89.60
12115;DHT22;6121;49.810;6.418;2023-04-06T12:01:45;12.40;89.40
12115;DHT22;6121;49.810;6.418;2023-04-06T12:04:11;12.40;90.20
12115;DHT22;6121;49.810;6.418;2023-04-06T12:06:37;12.50;90.40
12115;DHT22;6121;49.810;6.418;2023-04-06T12:09:03;12.70;90.70
12115;DHT22;6121;49.810;6.418;2023-04-06T12:11:29;12.50;90.70
12115;DHT22;6121;49.810;6.418;2023-04-06T12:13:54;12.50;90.80
12115;DHT22;6121;49.810;6.418;2023-04-06T12:16:20;12.50;91.60
12115;DHT22;6121;49.810;6.418;2023-04-06T12:18:47;12.50;91.30
12115;DHT22;6121;49.810;6.418;2023-04-06T12:21:13;12.40;91.70
12115;DHT22;6121;49.810;6.418;2023-04-06T12:23:40;12.30;91.70
12115;DHT22;6121;49.810;6.418;2023-04-06T12:26:05;12.40;91.60
12115;DHT22;6121;49.810;6.418;2023-04-06T12:28:31;12.20;92.20
12115;DHT22;6121;49.810;6.418;2023-04-06T12:30:57;12.00;93.30
12115;DHT22;6121;49.810;6.418;2023-04-06T12:33:23;11.70;94.30
12115;DHT22;6121;49.810;6.418;2023-04-06T12:35:50;11.60;94.90
12115;DHT22;6121;49.810;6.418;2023-04-06T12:38:16;11.60;95.50
12115;DHT22;6121;49.810;6.418;2023-04-06T12:40:42;11.70;95.60
12115;DHT22;6121;49.810;6.418;2023-04-06T12:43:09;11.80;96.10
12115;DHT22;6121;49.810;6.418;2023-04-06T12:45:35;11.60;95.50
12115;DHT22;6121;49.810;6.418;2023-04-06T12:48:03;11.60;96.00
12115;DHT22;6121;49.810;6.418;2023-04-06T12:50:29;11.60;96.20
12115;DHT22;6121;49.810;6.418;2023-04-06T12:52:55;11.60;96.40
12115;DHT22;6121;49.810;6.418;2023-04-06T12:55:20;11.70;97.30
12115;DHT22;6121;49.810;6.418;2023-04-06T12:57:48;11.50;97.50
12115;DHT22;6121;49.810;6.418;2023-04-06T13:00:14;11.40;97.90
12115;DHT22;6121;49.810;6.418;2023-04-06T13:02:41;11.70;98.30
12115;DHT22;6121;49.810;6.418;2023-04-06T13:05:13;11.70;98.60
12115;DHT22;6121;49.810;6.418;2023-04-06T13:07:40;11.50;99.20
12115;DHT22;6121;49.810;6.418;2023-04-06T13:10:07;11.60;99.90
12115;DHT22;6121;49.810;6.418;2023-04-06T13:12:33;11.90;99.90
12115;DHT22;6121;49.810;6.418;2023-04-06T13:14:58;11.80;99.90
12115;DHT22;6121;49.810;6.418;2023-04-06T13:17:29;11.90;99.80
12115;DHT22;6121;49.810;6.418;2023-04-06T13:19:55;11.80;99.40
12115;DHT22;6121;49.810;6.418;2023-04-06T13:22:21;11.90;99.20
12115;DHT22;6121;49.810;6.418;2023-04-06T13:24:46;12.10;99.60
12115;DHT22;6121;49.810;6.418;2023-04-06T13:27:12;12.00;98.80
12115;DHT22;6121;49.810;6.418;2023-04-06T13:29:38;11.80;97.70
12115;DHT22;6121;49.810;6.418;2023-04-06T13:32:04;11.80;98.40
12115;DHT22;6121;49.810;6.418;2023-04-06T13:34:30;11.70;99.40
12115;DHT22;6121;49.810;6.418;2023-04-06T13:36:56;11.70;99.60
12115;DHT22;6121;49.810;6.418;2023-04-06T13:39:23;11.90;99.50
12115;DHT22;6121;49.810;6.418;2023-04-06T13:41:49;11.90;98.70
12115;DHT22;6121;49.810;6.418;2023-04-06T13:44:16;11.70;99.90
12115;DHT22;6121;49.810;6.418;2023-04-06T13:46:43;11.60;99.90
12115;DHT22;6121;49.810;6.418;2023-04-06T13:49:09;11.50;99.90
12115;DHT22;6121;49.810;6.418;2023-04-06T13:51:35;11.50;99.90
12115;DHT22;6121;49.810;6.418;2023-04-06T13:54:01;11.20;99.90
12115;DHT22;6121;49.810;6.418;2023-04-06T13:56:27;11.40;99.90
12115;DHT22;6121;49.810;6.418;2023-04-06T13:58:56;11.20;99.90
12115;DHT22;6121;49.810;6.418;2023-04-06T14:01:22;10.80;99.90
12115;DHT22;6121;49.810;6.418;2023-04-06T14:03:48;11.00;99.90
12115;DHT22;6121;49.810;6.418;2023-04-06T14:06:15;11.10;99.90
12115;DHT22;6121;49.810;6.418;2023-04-06T14:08:40;11.10;99.90
12115;DHT22;6121;49.810;6.418;2023-04-06T14:11:11;11.20;99.90
12115;DHT22;6121;49.810;6.418;2023-04-06T14:13:37;11.10;99.90
12115;DHT22;6121;49.810;6.418;2023-04-06T14:16:03;10.90;99.90
12115;DHT22;6121;49.810;6.418;2023-04-06T14:18:29;10.70;99.90
12115;DHT22;6121;49.810;6.418;2023-04-06T14:20:57;10.40;99.90
12115;DHT22;6121;49.810;6.418;2023-04-06T14:23:24;10.40;99.90
12115;DHT22;6121;49.810;6.418;2023-04-06T14:26:07;10.40;99.90
12115;DHT22;6121;49.810;6.418;2023-04-06T14:28:34;10.50;99.90
12115;DHT22;6121;49.810;6.418;2023-04-06T14:31:02;10.70;99.90
12115;DHT22;6121;49.810;6.418;2023-04-06T14:33:35;10.50;99.90
12115;DHT22;6121;49.810;6.418;2023-04-06T14:36:04;10.60;99.90
12115;DHT22;6121;49.810;6.418;2023-04-06T14:38:31;10.40;99.90
12115;DHT22;6121;49.810;6.418;2023-04-06T14:40:57;10.40;99.90
12115;DHT22;6121;49.810;6.418;2023-04-06T14:43:23;10.60;99.90
12115;DHT22;6121;49.810;6.418;2023-04-06T14:45:50;10.50;99.90
12115;DHT22;6121;49.810;6.418;2023-04-06T14:48:16;10.60;99.90
12115;DHT22;6121;49.810;6.418;2023-04-06T14:50:55;10.50;99.90
12115;DHT22;6121;49.810;6.418;2023-04-06T14:53:24;10.30;99.90
12115;DHT22;6121;49.810;6.418;2023-04-06T14:55:50;10.40;99.90
12115;DHT22;6121;49.810;6.418;2023-04-06T14:58:20;10.20;99.90
12115;DHT22;6121;49.810;6.418;2023-04-06T15:00:47;10.40;99.90
12115;DHT22;6121;49.810;6.418;2023-04-06T15:03:14;10.40;99.90
12115;DHT22;6121;49.810;6.418;2023-04-06T15:05:41;10.30;99.90
12115;DHT22;6121;49.810;6.418;2023-04-06T15:08:07;10.10;99.90
12115;DHT22;6121;49.810;6.418;2023-04-06T15:10:35;10.00;99.90
12115;DHT22;6121;49.810;6.418;2023-04-06T15:13:02;9.90;99.90
12115;DHT22;6121;49.810;6.418;2023-04-06T15:15:28;9.90;99.90
12115;DHT22;6121;49.810;6.418;2023-04-06T15:17:54;9.80;99.90
12115;DHT22;6121;49.810;6.418;2023-04-06T15:20:20;9.60;99.90
12115;DHT22;6121;49.810;6.418;2023-04-06T15:22:46;9.40;99.90
12115;DHT22;6121;49.810;6.418;2023-04-06T15:25:13;9.30;99.90
12115;DHT22;6121;49.810;6.418;2023-04-06T15:27:39;9.60;99.90
12115;DHT22;6121;49.810;6.418;2023-04-06T15:30:05;9.40;99.90
12115;DHT22;6121;49.810;6.418;2023-04-06T15:32:31;9.70;99.90
12115;DHT22;6121;49.810;6.418;2023-04-06T15:34:58;9.40;99.90
12115;DHT22;6121;49.810;6.418;2023-04-06T15:37:25;9.40;99.90
12115;DHT22;6121;49.810;6.418;2023-04-06T15:39:52;9.50;99.90
12115;DHT22;6121;49.810;6.418;2023-04-06T15:42:17;9.60;99.90
12115;DHT22;6121;49.810;6.418;2023-04-06T15:44:43;9.50;99.90
12115;DHT22;6121;49.810;6.418;2023-04-06T15:47:09;9.30;99.90
12115;DHT22;6121;49.810;6.418;2023-04-06T15:49:35;9.30;99.90
12115;DHT22;6121;49.810;6.418;2023-04-06T15:52:01;8.90;99.90
12115;DHT22;6121;49.810;6.418;2023-04-06T15:54:27;8.80;99.90
12115;DHT22;6121;49.810;6.418;2023-04-06T15:56:53;9.00;99.90
12115;DHT22;6121;49.810;6.418;2023-04-06T15:59:18;8.90;99.90
12115;DHT22;6121;49.810;6.418;2023-04-06T16:01:47;9.10;99.90
12115;DHT22;6121;49.810;6.418;2023-04-06T16:04:14;9.20;99.90
12115;DHT22;6121;49.810;6.418;2023-04-06T16:06:40;9.20;99.90
12115;DHT22;6121;49.810;6.418;2023-04-06T16:09:06;9.10;99.90